createdAt,value
2023-04-22T00:02:00.196Z,15.50
2023-04-22T00:04:03.385Z,15.50
2023-04-22T00:06:06.674Z,15.50
2023-04-22T00:08:11.892Z,15.50
2023-04-22T00:10:14.946Z,15.60
2023-04-22T00:12:19.289Z,15.60
2023-04-22T00:14:22.135Z,15.60
2023-04-22T00:16:26.252Z,15.50
2023-04-22T00:18:29.303Z,15.50
2023-04-22T00:20:32.950Z,15.50
2023-04-22T00:22:35.802Z,15.40
2023-04-22T00:24:38.627Z,15.40
2023-04-22T00:26:41.713Z,15.30
2023-04-22T00:28:47.034Z,15.30
2023-04-22T00:30:49.857Z,15.20
2023-04-22T00:32:55.168Z,15.20
2023-04-22T00:34:58.500Z,15.10
2023-04-22T00:37:01.762Z,15.00
2023-04-22T00:39:04.741Z,15.10
2023-04-22T00:41:09.128Z,15.00
2023-04-22T00:43:13.381Z,15.00
2023-04-22T00:45:21.411Z,15.00
2023-04-22T00:47:26.945Z,14.90
2023-04-22T00:49:30.040Z,14.90
2023-04-22T00:51:33.179Z,14.80
2023-04-22T00:53:36.001Z,14.60
2023-04-22T00:55:38.937Z,14.40
2023-04-22T00:57:41.995Z,14.40
2023-04-22T00:59:45.608Z,14.40
2023-04-22T01:01:49.869Z,14.40
2023-04-22T01:03:53.541Z,14.40
2023-04-22T01:05:58.223Z,14.30
2023-04-22T01:08:01.605Z,14.30
2023-04-22T01:10:04.823Z,14.00
2023-04-22T01:12:07.727Z,13.90
2023-04-22T01:14:10.557Z,13.80
2023-04-22T01:16:14.257Z,13.60
2023-04-22T01:18:20.047Z,13.40
2023-04-22T01:20:23.324Z,13.60
2023-04-22T01:22:27.276Z,13.70
2023-04-22T01:24:31.783Z,13.60
2023-04-22T01:26:34.886Z,13.60
2023-04-22T01:28:37.807Z,13.50
2023-04-22T01:30:40.948Z,13.60
2023-04-22T01:32:44.211Z,13.30
2023-04-22T01:34:47.342Z,13.30
2023-04-22T01:36:51.712Z,13.40
2023-04-22T01:38:54.904Z,13.30
2023-04-22T01:40:59.032Z,13.20
2023-04-22T01:43:02.870Z,13.10
2023-04-22T01:45:06.676Z,13.00
2023-04-22T01:47:09.462Z,13.10
2023-04-22T01:49:12.265Z,13.10
2023-04-22T01:51:15.423Z,13.10
2023-04-22T01:53:18.507Z,12.90
2023-04-22T01:55:21.282Z,12.90
2023-04-22T01:57:25.398Z,12.80
2023-04-22T01:59:28.359Z,12.80
2023-04-22T02:01:31.307Z,12.90
2023-04-22T02:03:34.438Z,12.80
2023-04-22T02:05:38.343Z,12.90
2023-04-22T02:07:41.200Z,12.90
2023-04-22T02:09:44.455Z,13.00
2023-04-22T02:11:47.216Z,13.00
2023-04-22T02:13:51.366Z,13.10
2023-04-22T02:15:54.116Z,13.10
2023-04-22T02:17:56.967Z,13.10
2023-04-22T02:20:00.106Z,13.10
2023-04-22T02:22:03.053Z,13.10
2023-04-22T02:24:06.526Z,13.10
2023-04-22T02:26:09.830Z,13.10
2023-04-22T02:28:12.600Z,13.10
2023-04-22T02:30:16.981Z,13.10
2023-04-22T02:32:19.762Z,13.00
2023-04-22T02:34:22.612Z,13.10
2023-04-22T02:36:25.441Z,13.10
2023-04-22T02:38:28.301Z,13.00
2023-04-22T02:40:31.417Z,13.00
2023-04-22T02:42:34.805Z,13.00
2023-04-22T02:44:37.807Z,13.00
2023-04-22T02:46:42.105Z,13.00
2023-04-22T02:48:45.197Z,12.90
2023-04-22T02:50:49.642Z,13.00
2023-04-22T02:52:52.471Z,13.00
2023-04-22T02:54:55.377Z,13.00
2023-04-22T02:56:58.423Z,13.10
2023-04-22T02:59:01.221Z,13.00
2023-04-22T03:01:04.077Z,13.10
2023-04-22T03:03:08.507Z,13.10
2023-04-22T03:05:11.621Z,13.10
2023-04-22T03:07:16.977Z,13.10
2023-04-22T03:09:19.880Z,13.10
2023-04-22T03:11:22.688Z,13.20
2023-04-22T03:13:25.869Z,13.20
2023-04-22T03:15:28.995Z,13.20
2023-04-22T03:17:31.992Z,13.30
2023-04-22T03:19:36.334Z,13.20
2023-04-22T03:21:39.769Z,13.20
2023-04-22T03:23:42.647Z,13.30
2023-04-22T03:25:45.366Z,13.30
2023-04-22T03:27:48.198Z,13.30
2023-04-22T03:29:53.181Z,13.30
2023-04-22T03:31:55.972Z,13.30
2023-04-22T03:34:00.114Z,13.20
2023-04-22T03:36:04.334Z,13.20
2023-04-22T03:38:08.019Z,13.30
2023-04-22T03:40:13.585Z,13.20
2023-04-22T03:42:18.148Z,13.20
2023-04-22T03:44:20.899Z,13.00
2023-04-22T03:46:24.932Z,12.90
2023-04-22T03:48:29.001Z,13.00
2023-04-22T03:50:32.064Z,13.00
2023-04-22T03:52:36.189Z,13.10
2023-04-22T03:54:39.094Z,13.20
2023-04-22T03:56:42.141Z,13.20
2023-04-22T03:58:45.076Z,13.10
2023-04-22T04:00:48.130Z,13.20
2023-04-22T04:02:51.383Z,13.30
2023-04-22T04:04:54.378Z,13.30
2023-04-22T04:06:57.597Z,13.30
2023-04-22T04:09:02.221Z,13.30
2023-04-22T04:11:05.458Z,13.20
2023-04-22T04:13:08.441Z,13.20
2023-04-22T04:15:13.452Z,13.30
2023-04-22T04:17:20.673Z,13.20
2023-04-22T04:19:23.448Z,13.20
2023-04-22T04:21:28.162Z,13.20
2023-04-22T04:23:31.085Z,13.20
2023-04-22T04:25:38.416Z,13.30
2023-04-22T04:27:41.776Z,13.40
2023-04-22T04:29:44.580Z,13.50
2023-04-22T04:31:47.405Z,13.40
2023-04-22T04:33:50.325Z,13.40
2023-04-22T04:35:54.029Z,13.40
2023-04-22T04:37:58.856Z,13.50
2023-04-22T04:40:01.990Z,13.50
2023-04-22T04:42:06.334Z,13.60
2023-04-22T04:44:09.164Z,13.60
2023-04-22T04:46:12.290Z,13.60
2023-04-22T04:48:15.479Z,13.70
2023-04-22T04:50:18.711Z,13.70
2023-04-22T04:52:21.477Z,13.70
2023-04-22T04:54:24.527Z,13.80
2023-04-22T04:56:27.323Z,13.80
2023-04-22T04:58:34.815Z,13.80
2023-04-22T05:00:37.729Z,13.90
2023-04-22T05:02:40.707Z,13.80
2023-04-22T05:04:43.743Z,13.70
2023-04-22T05:06:46.777Z,13.70
2023-04-22T05:08:49.650Z,13.70
2023-04-22T05:10:52.486Z,13.80
2023-04-22T05:12:55.367Z,13.90
2023-04-22T05:14:59.801Z,14.10
2023-04-22T05:17:03.306Z,14.20
2023-04-22T05:19:06.475Z,14.20
2023-04-22T05:21:09.578Z,14.20
2023-04-22T05:23:13.419Z,14.00
2023-04-22T05:25:16.763Z,14.00
2023-04-22T05:27:19.877Z,14.00
2023-04-22T05:29:22.696Z,13.90
2023-04-22T05:31:27.698Z,13.90
2023-04-22T05:33:30.794Z,14.00
2023-04-22T05:35:33.795Z,14.10
2023-04-22T05:37:36.811Z,14.10
2023-04-22T05:39:39.837Z,14.30
2023-04-22T05:41:44.849Z,14.50
2023-04-22T05:43:49.698Z,14.80
2023-04-22T05:45:52.692Z,14.90
2023-04-22T05:47:57.183Z,15.10
2023-04-22T05:50:03.533Z,15.30
2023-04-22T05:52:07.363Z,15.40
2023-04-22T05:54:10.278Z,15.50
2023-04-22T05:56:13.523Z,15.70
2023-04-22T05:58:17.496Z,15.80
2023-04-22T06:00:20.640Z,15.90
2023-04-22T06:02:24.075Z,16.10
2023-04-22T06:04:28.607Z,16.30
2023-04-22T06:06:32.343Z,16.40
2023-04-22T06:08:35.761Z,16.60
2023-04-22T06:10:38.617Z,16.70
2023-04-22T06:12:41.515Z,16.80
2023-04-22T06:14:44.330Z,16.90
2023-04-22T06:16:47.184Z,17.10
2023-04-22T06:18:50.248Z,17.20
2023-04-22T06:20:54.542Z,17.40
2023-04-22T06:22:57.886Z,17.60
2023-04-22T06:25:00.874Z,17.70
2023-04-22T06:27:06.893Z,17.80
2023-04-22T06:29:09.850Z,17.90
2023-04-22T06:31:13.028Z,18.10
2023-04-22T06:33:15.867Z,18.20
2023-04-22T06:35:18.738Z,18.40
2023-04-22T06:37:23.330Z,18.50
2023-04-22T06:39:27.229Z,18.50
2023-04-22T06:41:30.247Z,18.60
2023-04-22T06:43:35.938Z,18.70
2023-04-22T06:45:38.847Z,18.80
2023-04-22T06:47:41.816Z,18.80
2023-04-22T06:49:46.040Z,18.80
2023-04-22T06:51:50.409Z,18.90
2023-04-22T06:53:57.348Z,19.00
2023-04-22T06:56:00.423Z,19.00
2023-04-22T06:58:03.458Z,19.00
2023-04-22T07:00:08.677Z,19.10
2023-04-22T07:02:12.083Z,19.20
2023-04-22T07:04:15.124Z,19.30
2023-04-22T07:06:17.998Z,19.50
2023-04-22T07:08:22.740Z,19.50
2023-04-22T07:10:27.210Z,19.50
2023-04-22T07:12:30.474Z,19.50
2023-04-22T07:14:33.591Z,19.60
2023-04-22T07:16:38.913Z,19.60
2023-04-22T07:18:42.491Z,19.80
2023-04-22T07:20:47.613Z,19.90
2023-04-22T07:22:52.237Z,20.10
2023-04-22T07:24:55.241Z,20.20
2023-04-22T07:27:00.004Z,20.30
2023-04-22T07:29:03.411Z,20.30
2023-04-22T07:31:08.421Z,20.40
2023-04-22T07:33:11.242Z,20.40
2023-04-22T07:35:14.553Z,20.40
2023-04-22T07:37:19.422Z,20.50
2023-04-22T07:39:22.437Z,20.60
2023-04-22T07:41:25.285Z,20.70
2023-04-22T07:43:31.962Z,20.80
2023-04-22T07:45:34.952Z,21.00
2023-04-22T07:47:40.206Z,21.10
2023-04-22T07:49:43.396Z,21.20
2023-04-22T07:51:49.656Z,21.30
2023-04-22T07:53:52.479Z,21.50
2023-04-22T07:55:56.920Z,21.60
2023-04-22T07:58:01.019Z,21.70
2023-04-22T08:00:06.469Z,21.80
2023-04-22T08:02:09.809Z,21.90
2023-04-22T08:04:12.981Z,22.00
2023-04-22T08:06:15.979Z,22.10
2023-04-22T08:08:18.891Z,22.10
2023-04-22T08:10:21.691Z,22.10
2023-04-22T08:12:24.789Z,22.10
2023-04-22T08:14:27.778Z,22.20
2023-04-22T08:16:32.183Z,22.20
2023-04-22T08:18:35.087Z,22.20
2023-04-22T08:20:38.653Z,22.20
2023-04-22T08:22:42.228Z,22.20
2023-04-22T08:24:45.357Z,22.10
2023-04-22T08:26:48.234Z,22.30
2023-04-22T08:28:53.533Z,22.40
2023-04-22T08:30:56.411Z,22.60
2023-04-22T08:33:01.456Z,22.70
2023-04-22T08:35:05.618Z,22.70
2023-04-22T08:37:09.096Z,22.70
2023-04-22T08:39:12.788Z,22.80
2023-04-22T08:41:16.539Z,22.60
2023-04-22T08:43:19.968Z,22.60
2023-04-22T08:45:23.422Z,22.70
2023-04-22T08:47:26.954Z,22.60
2023-04-22T08:49:31.872Z,22.70
2023-04-22T08:51:34.958Z,22.80
2023-04-22T08:53:38.632Z,22.90
2023-04-22T08:55:45.750Z,23.00
2023-04-22T08:57:50.199Z,23.20
2023-04-22T08:59:55.431Z,23.30
2023-04-22T09:01:59.854Z,23.40
2023-04-22T09:04:03.746Z,23.60
2023-04-22T09:06:11.546Z,23.70
2023-04-22T09:08:14.865Z,23.80
2023-04-22T09:10:19.010Z,23.90
2023-04-22T09:12:21.840Z,23.90
2023-04-22T09:14:25.295Z,23.90
2023-04-22T09:16:30.888Z,23.90
2023-04-22T09:18:43.329Z,24.20
2023-04-22T09:20:48.632Z,24.20
2023-04-22T09:22:54.078Z,24.10
2023-04-22T09:24:57.031Z,24.20
2023-04-22T09:27:03.491Z,24.30
2023-04-22T09:29:09.408Z,24.30
2023-04-22T09:31:15.396Z,24.40
2023-04-22T09:33:18.425Z,24.60
2023-04-22T09:35:27.160Z,24.70
2023-04-22T09:37:42.496Z,24.80
2023-04-22T09:39:56.002Z,24.90
2023-04-22T09:41:58.983Z,24.80
2023-04-22T09:44:03.786Z,24.80
2023-04-22T09:46:08.897Z,24.90
2023-04-22T09:48:13.549Z,25.10
2023-04-22T09:50:16.312Z,25.10
2023-04-22T09:52:24.360Z,25.20
2023-04-22T09:54:27.130Z,25.10
2023-04-22T09:56:46.663Z,25.20
2023-04-22T09:58:53.713Z,25.20
2023-04-22T10:00:58.976Z,25.30
2023-04-22T10:03:02.302Z,25.30
2023-04-22T10:05:06.296Z,25.40
2023-04-22T10:07:09.322Z,25.40
2023-04-22T10:09:12.487Z,25.60
2023-04-22T10:11:15.441Z,25.70
2023-04-22T10:13:19.610Z,25.70
2023-04-22T10:15:23.484Z,25.70
2023-04-22T10:17:30.815Z,25.80
2023-04-22T10:19:35.214Z,25.90
2023-04-22T10:21:39.264Z,26.00
2023-04-22T10:23:47.525Z,26.10
2023-04-22T10:25:53.842Z,26.10
2023-04-22T10:28:04.003Z,26.00
2023-04-22T10:30:09.974Z,26.20
2023-04-22T10:32:29.220Z,26.20
2023-04-22T10:34:32.941Z,26.20
2023-04-22T10:36:36.034Z,26.20
2023-04-22T10:38:40.526Z,26.20
2023-04-22T10:41:01.368Z,26.30
2023-04-22T10:43:05.313Z,26.30
2023-04-22T10:45:14.333Z,26.40
2023-04-22T10:47:28.201Z,26.50
2023-04-22T10:49:32.362Z,26.70
2023-04-22T10:51:41.351Z,26.70
2023-04-22T10:53:48.613Z,26.80
2023-04-22T10:55:53.635Z,26.70
2023-04-22T10:57:56.822Z,26.70
2023-04-22T11:00:00.508Z,26.70
2023-04-22T11:02:08.947Z,26.80
2023-04-22T11:04:23.307Z,27.00
2023-04-22T11:06:29.918Z,27.00
2023-04-22T11:08:32.992Z,27.10
2023-04-22T11:10:44.670Z,27.10
2023-04-22T11:12:50.727Z,27.10
2023-04-22T11:14:54.232Z,27.00
2023-04-22T11:16:58.359Z,27.00
2023-04-22T11:19:03.558Z,27.10
2023-04-22T11:21:09.735Z,27.30
2023-04-22T11:23:12.849Z,27.40
2023-04-22T11:25:16.080Z,27.40
2023-04-22T11:27:26.237Z,27.50
2023-04-22T11:29:29.022Z,27.40
2023-04-22T11:31:32.041Z,27.40
2023-04-22T11:33:35.456Z,27.40
2023-04-22T11:35:42.691Z,27.40
2023-04-22T11:37:46.889Z,27.30
2023-04-22T11:41:59.921Z,27.00
2023-04-22T11:44:03.168Z,27.00
2023-04-22T11:46:06.053Z,26.90
2023-04-22T11:48:12.070Z,26.80
2023-04-22T11:50:17.052Z,26.80
2023-04-22T11:52:21.495Z,26.90
2023-04-22T11:54:34.315Z,26.90
2023-04-22T11:56:38.804Z,26.90
2023-04-22T11:58:42.372Z,26.70
2023-04-22T12:00:46.721Z,26.70
2023-04-22T12:03:03.610Z,26.80
2023-04-22T12:05:11.629Z,26.90
2023-04-22T12:07:16.368Z,27.00
2023-04-22T12:09:20.664Z,27.00
2023-04-22T12:11:23.454Z,27.00
2023-04-22T12:13:28.984Z,26.90
2023-04-22T12:15:43.310Z,27.10
2023-04-22T12:17:46.514Z,27.20
2023-04-22T12:19:49.392Z,27.20
2023-04-22T12:21:52.181Z,27.50
2023-04-22T12:23:57.156Z,27.60
2023-04-22T12:26:02.494Z,27.80
2023-04-22T12:28:06.380Z,28.00
2023-04-22T12:30:10.392Z,28.10
2023-04-22T12:32:13.525Z,28.30
2023-04-22T12:34:16.573Z,28.40
2023-04-22T12:36:20.822Z,28.50
2023-04-22T12:38:23.641Z,28.70
2023-04-22T12:40:27.023Z,28.90
2023-04-22T12:42:31.360Z,29.00
2023-04-22T12:44:34.322Z,29.20
2023-04-22T12:46:37.576Z,29.30
2023-04-22T12:48:42.785Z,29.40
2023-04-22T12:50:46.028Z,29.60
2023-04-22T12:52:49.040Z,29.50
2023-04-22T12:54:53.548Z,29.50
2023-04-22T12:56:57.819Z,29.40
2023-04-22T12:59:03.285Z,29.30
2023-04-22T13:01:06.391Z,29.20
2023-04-22T13:03:09.342Z,29.20
2023-04-22T13:05:13.819Z,29.10
2023-04-22T13:07:19.475Z,29.20
2023-04-22T13:09:22.863Z,29.30
2023-04-22T13:11:25.996Z,29.30
2023-04-22T13:13:31.433Z,29.40
2023-04-22T13:15:36.402Z,29.30
2023-04-22T13:17:39.841Z,29.20
2023-04-22T13:19:43.060Z,29.10
2023-04-22T13:21:46.969Z,29.10
2023-04-22T13:23:49.723Z,29.10
2023-04-22T13:25:54.970Z,29.10
2023-04-22T13:27:57.747Z,29.20
2023-04-22T13:30:00.728Z,29.30
2023-04-22T13:32:06.338Z,29.40
2023-04-22T13:34:09.119Z,29.50
2023-04-22T13:36:13.269Z,29.60
2023-04-22T13:38:18.441Z,29.70
2023-04-22T13:40:21.721Z,29.70
2023-04-22T13:42:24.429Z,29.80
2023-04-22T13:44:27.411Z,29.80
2023-04-22T13:46:30.530Z,29.80
2023-04-22T13:48:34.815Z,29.90
2023-04-22T13:50:37.691Z,30.00
2023-04-22T13:52:40.542Z,30.00
2023-04-22T13:54:44.078Z,29.90
2023-04-22T13:56:46.840Z,29.80
2023-04-22T13:58:49.850Z,29.90
2023-04-22T14:00:52.670Z,29.80
2023-04-22T14:02:56.470Z,29.70
2023-04-22T14:05:01.313Z,29.60
2023-04-22T14:07:04.126Z,29.40
2023-04-22T14:09:09.240Z,29.30
2023-04-22T14:11:12.464Z,29.30
2023-04-22T14:13:15.325Z,29.40
2023-04-22T14:15:18.203Z,29.60
2023-04-22T14:17:22.509Z,29.80
2023-04-22T14:19:26.081Z,30.00
2023-04-22T14:21:31.287Z,29.90
2023-04-22T14:23:34.412Z,30.00
2023-04-22T14:25:37.297Z,30.00
2023-04-22T14:27:40.057Z,30.20
2023-04-22T14:29:43.854Z,30.20
2023-04-22T14:31:46.657Z,30.40
2023-04-22T14:33:49.462Z,30.80
2023-04-22T14:35:52.791Z,32.20
2023-04-22T14:37:59.014Z,33.30
2023-04-22T14:40:01.803Z,33.70
2023-04-22T14:42:05.277Z,34.10
2023-04-22T14:44:08.024Z,34.20
2023-04-22T14:46:10.799Z,34.90
2023-04-22T14:48:14.995Z,34.90
2023-04-22T14:50:18.116Z,34.90
2023-04-22T14:52:20.947Z,35.10
2023-04-22T14:54:25.057Z,35.80
2023-04-22T14:56:27.964Z,36.50
2023-04-22T14:58:32.060Z,36.70
2023-04-22T15:00:34.945Z,38.80
2023-04-22T15:02:39.291Z,41.30
2023-04-22T15:04:42.489Z,42.90
2023-04-22T15:06:45.356Z,44.40
2023-04-22T15:08:48.169Z,45.20
2023-04-22T15:10:52.974Z,45.90
2023-04-22T15:12:55.983Z,46.50
2023-04-22T15:14:58.663Z,46.80
2023-04-22T15:17:01.407Z,47.00
2023-04-22T15:19:04.178Z,47.30
2023-04-22T15:21:10.051Z,46.40
2023-04-22T15:23:13.721Z,43.50
2023-04-22T15:25:18.159Z,41.10
2023-04-22T15:27:22.802Z,39.00
2023-04-22T15:29:25.702Z,37.50
2023-04-22T15:31:30.840Z,36.30
2023-04-22T15:33:33.629Z,35.20
2023-04-22T15:35:36.448Z,34.50
2023-04-22T15:37:40.249Z,33.80
2023-04-22T15:39:43.263Z,33.10
2023-04-22T15:41:46.536Z,32.60
2023-04-22T15:43:51.935Z,32.20
2023-04-22T15:45:58.812Z,31.80
2023-04-22T15:48:01.727Z,31.60
2023-04-22T15:50:09.683Z,31.50
2023-04-22T15:52:12.948Z,31.50
2023-04-22T15:54:15.984Z,31.30
2023-04-22T15:56:18.782Z,31.10
2023-04-22T15:58:21.591Z,30.90
2023-04-22T16:00:26.312Z,30.60
2023-04-22T16:02:29.310Z,30.60
2023-04-22T16:04:32.314Z,30.40
2023-04-22T16:06:35.915Z,30.40
2023-04-22T16:08:38.994Z,30.30
2023-04-22T16:10:41.828Z,30.30
2023-04-22T16:12:44.664Z,30.30
2023-04-22T16:14:47.636Z,30.30
2023-04-22T16:16:52.363Z,30.40
2023-04-22T16:18:55.663Z,30.40
2023-04-22T16:21:00.586Z,30.30
2023-04-22T16:23:03.381Z,30.90
2023-04-22T16:25:08.178Z,32.30
2023-04-22T16:27:16.430Z,33.70
2023-04-22T16:29:20.305Z,34.00
2023-04-22T16:31:23.827Z,33.70
2023-04-22T16:33:27.873Z,33.30
2023-04-22T16:35:30.613Z,33.00
2023-04-22T16:37:34.056Z,32.30
2023-04-22T16:39:37.049Z,31.90
2023-04-22T16:41:39.854Z,31.50
2023-04-22T16:43:42.732Z,31.30
2023-04-22T16:45:45.777Z,31.20
2023-04-22T16:47:48.676Z,30.80
2023-04-22T16:49:53.060Z,30.30
2023-04-22T16:51:55.821Z,29.80
2023-04-22T16:53:58.590Z,29.50
2023-04-22T16:56:01.821Z,29.10
2023-04-22T16:58:04.570Z,28.80
2023-04-22T17:00:08.552Z,28.40
2023-04-22T17:02:11.370Z,28.20
2023-04-22T17:04:14.345Z,28.00
2023-04-22T17:06:18.850Z,27.80
2023-04-22T17:08:21.601Z,27.60
2023-04-22T17:10:28.794Z,27.40
2023-04-22T17:12:31.580Z,27.20
2023-04-22T17:14:34.693Z,27.10
2023-04-22T17:16:38.304Z,27.00
2023-04-22T17:18:41.051Z,26.80
2023-04-22T17:20:43.861Z,26.70
2023-04-22T17:22:48.008Z,26.60
2023-04-22T17:24:50.933Z,26.50
2023-04-22T17:26:53.812Z,26.40
2023-04-22T17:28:56.555Z,26.30
2023-04-22T17:30:59.502Z,26.10
2023-04-22T17:33:02.373Z,26.00
2023-04-22T17:35:05.888Z,25.90
2023-04-22T17:37:08.687Z,25.80
2023-04-22T17:39:12.785Z,25.70
2023-04-22T17:41:15.956Z,25.60
2023-04-22T17:43:18.758Z,25.50
2023-04-22T17:45:21.702Z,25.50
2023-04-22T17:47:24.641Z,25.40
2023-04-22T17:49:27.479Z,25.20
2023-04-22T17:51:31.419Z,25.00
2023-04-22T17:53:34.652Z,24.80
2023-04-22T17:55:38.863Z,24.50
2023-04-22T17:57:42.206Z,24.30
2023-04-22T17:59:45.236Z,24.10
2023-04-22T18:01:48.313Z,24.10
2023-04-22T18:03:51.175Z,24.10
2023-04-22T18:05:53.950Z,23.90
2023-04-22T18:08:02.298Z,23.90
2023-04-22T18:10:07.273Z,23.70
2023-04-22T18:12:11.505Z,23.50
2023-04-22T18:14:14.413Z,23.50
2023-04-22T18:16:17.206Z,23.40
2023-04-22T18:18:19.985Z,23.40
2023-04-22T18:20:22.890Z,23.40
2023-04-22T18:22:26.381Z,23.20
2023-04-22T18:24:29.531Z,23.20
2023-04-22T18:26:32.307Z,23.20
2023-04-22T18:28:36.411Z,23.10
2023-04-22T18:30:39.163Z,23.10
2023-04-22T18:32:42.011Z,23.00
2023-04-22T18:34:44.880Z,22.90
2023-04-22T18:36:47.807Z,22.90
2023-04-22T18:38:50.796Z,22.80
2023-04-22T18:40:53.656Z,22.80
2023-04-22T18:42:56.568Z,22.70
2023-04-22T18:45:01.928Z,22.80
2023-04-22T18:47:06.773Z,22.80
2023-04-22T18:49:11.682Z,22.70
2023-04-22T18:51:14.823Z,22.70
2023-04-22T18:53:17.604Z,22.70
2023-04-22T18:55:20.438Z,22.60
2023-04-22T18:57:23.247Z,22.60
2023-04-22T18:59:26.129Z,22.60
2023-04-22T19:01:30.594Z,22.60
2023-04-22T19:03:33.617Z,22.60
2023-04-22T19:05:39.521Z,22.60
2023-04-22T19:07:44.960Z,22.60
2023-04-22T19:09:48.126Z,22.50
2023-04-22T19:11:51.115Z,22.50
2023-04-22T19:13:53.928Z,22.50
2023-04-22T19:15:56.791Z,22.40
2023-04-22T19:18:02.293Z,22.40
2023-04-22T19:20:06.097Z,22.40
2023-04-22T19:22:09.648Z,22.30
2023-04-22T19:24:14.420Z,22.20
2023-04-22T19:26:17.369Z,22.20
2023-04-22T19:28:20.244Z,22.20
2023-04-22T19:30:26.418Z,22.20
2023-04-22T19:32:29.286Z,22.10
2023-04-22T19:34:36.811Z,22.10
2023-04-22T19:36:39.823Z,22.00
2023-04-22T19:38:43.268Z,21.90
2023-04-22T19:40:46.498Z,21.80
2023-04-22T19:42:49.619Z,21.80
2023-04-22T19:44:52.404Z,21.70
2023-04-22T19:46:55.492Z,21.60
2023-04-22T19:48:58.758Z,21.60
2023-04-22T19:51:06.212Z,21.60
2023-04-22T19:53:11.413Z,21.50
2023-04-22T19:55:15.201Z,21.50
2023-04-22T19:57:18.545Z,21.40
2023-04-22T19:59:21.465Z,21.40
2023-04-22T20:01:24.659Z,21.30
2023-04-22T20:03:28.289Z,21.40
2023-04-22T20:05:31.686Z,21.40
2023-04-22T20:07:37.211Z,21.30
2023-04-22T20:09:41.336Z,21.30
2023-04-22T20:11:44.729Z,21.30
2023-04-22T20:13:49.664Z,21.20
2023-04-22T20:15:52.757Z,21.30
2023-04-22T20:17:55.988Z,21.30
2023-04-22T20:20:01.750Z,21.20
2023-04-22T20:22:07.132Z,21.20
2023-04-22T20:24:18.973Z,21.10
2023-04-22T20:26:22.286Z,21.20
2023-04-22T20:28:40.536Z,21.20
2023-04-22T20:30:43.531Z,21.20
2023-04-22T20:32:46.583Z,21.10
2023-04-22T20:34:50.269Z,21.20
2023-04-22T20:36:54.875Z,21.10
2023-04-22T20:39:03.824Z,21.10
2023-04-22T20:41:10.193Z,21.10
2023-04-22T20:43:14.030Z,21.10
2023-04-22T20:45:17.994Z,21.10
2023-04-22T20:47:23.119Z,21.20
2023-04-22T20:49:26.351Z,21.20
2023-04-22T20:51:29.779Z,21.10
2023-04-22T20:53:32.827Z,21.10
2023-04-22T20:55:37.027Z,21.10
2023-04-22T20:57:41.626Z,21.10
2023-04-22T20:59:44.392Z,21.10
2023-04-22T21:01:49.115Z,21.00
2023-04-22T21:03:56.225Z,20.90
2023-04-22T21:06:02.062Z,20.80
2023-04-22T21:08:09.649Z,20.80
2023-04-22T21:10:13.273Z,20.80
2023-04-22T21:12:18.298Z,20.80
2023-04-22T21:14:26.132Z,20.80
2023-04-22T21:16:31.983Z,20.80
2023-04-22T21:18:39.198Z,20.70
2023-04-22T21:20:45.973Z,20.60
2023-04-22T21:22:49.709Z,20.70
2023-04-22T21:24:53.863Z,20.70
2023-04-22T21:26:57.261Z,20.70
2023-04-22T21:29:00.663Z,20.50
2023-04-22T21:31:06.276Z,20.60
2023-04-22T21:33:09.215Z,20.60
2023-04-22T21:35:12.557Z,20.60
2023-04-22T21:37:15.661Z,20.50
2023-04-22T21:39:18.826Z,20.40
2023-04-22T21:41:21.699Z,20.40
2023-04-22T21:43:24.847Z,20.30
2023-04-22T21:45:27.868Z,20.30
2023-04-22T21:47:32.318Z,20.20
2023-04-22T21:49:35.717Z,20.30
2023-04-22T21:51:38.597Z,20.30
2023-04-22T21:53:41.666Z,20.40
2023-04-22T21:55:44.565Z,20.40
2023-04-22T21:57:47.933Z,20.40
2023-04-22T21:59:51.025Z,20.40
2023-04-22T22:01:54.384Z,20.30
2023-04-22T22:03:58.942Z,20.30
2023-04-22T22:06:02.023Z,20.30
2023-04-22T22:08:05.014Z,20.40
2023-04-22T22:10:09.963Z,20.40
2023-04-22T22:12:15.523Z,20.50
2023-04-22T22:14:18.783Z,20.50
2023-04-22T22:16:21.681Z,20.50
2023-04-22T22:18:26.561Z,20.50
2023-04-22T22:20:31.016Z,20.40
2023-04-22T22:22:34.152Z,20.40
2023-04-22T22:24:37.205Z,20.30
2023-04-22T22:26:42.926Z,20.20
2023-04-22T22:28:45.932Z,20.30
2023-04-22T22:30:48.708Z,20.20
2023-04-22T22:32:51.573Z,20.10
2023-04-22T22:34:54.596Z,20.20
2023-04-22T22:36:58.728Z,20.10
2023-04-22T22:39:01.547Z,20.00
2023-04-22T22:41:04.361Z,19.80
2023-04-22T22:43:07.341Z,19.80
2023-04-22T22:45:11.283Z,19.80
2023-04-22T22:47:14.475Z,19.70
2023-04-22T22:49:17.400Z,19.70
2023-04-22T22:51:21.116Z,19.50
2023-04-22T22:53:25.284Z,19.40
2023-04-22T22:55:28.200Z,19.50
2023-04-22T22:57:31.314Z,19.40
2023-04-22T22:59:34.223Z,19.40
2023-04-22T23:01:37.269Z,19.40
2023-04-22T23:03:40.360Z,19.60
2023-04-22T23:05:43.395Z,19.70
2023-04-22T23:07:46.188Z,19.80
2023-04-22T23:09:50.562Z,19.80
2023-04-22T23:11:55.155Z,19.80
2023-04-22T23:13:58.041Z,19.80
2023-04-22T23:16:02.027Z,19.80
2023-04-22T23:18:06.410Z,19.80
2023-04-22T23:20:11.064Z,19.80
2023-04-22T23:22:14.757Z,19.80
2023-04-22T23:24:18.101Z,19.70
2023-04-22T23:26:22.742Z,19.60
2023-04-22T23:28:26.816Z,19.60
2023-04-22T23:30:30.535Z,19.60
2023-04-22T23:32:36.036Z,19.60
2023-04-22T23:34:42.998Z,19.50
2023-04-22T23:36:46.437Z,19.50
2023-04-22T23:38:49.705Z,19.50
2023-04-22T23:40:52.455Z,19.40
2023-04-22T23:42:56.599Z,19.40
2023-04-22T23:44:59.701Z,19.30
2023-04-22T23:47:02.657Z,19.20
2023-04-22T23:49:06.442Z,19.10
2023-04-22T23:51:09.591Z,19.00
2023-04-22T23:53:12.423Z,19.00
2023-04-22T23:55:16.890Z,19.00
2023-04-22T23:57:20.310Z,19.00
2023-04-22T23:59:25.167Z,19.20
